ダブリン の空港の天気 - METARとTAF

ダブリン空港 ( EIDW / DUB ) - アイルランド ダブリン
飛行場実況気象(Metar)
観測時間08/11 07:30 GMT (08/11 06:30 UTC)
風向・風速北北西 2m/s
視程5000m
天気現象
全天の4割程度の雲 雲底高度 150m
全天の8割程度の雲 雲底高度 240m
気温14℃
湿度100%
気圧1016hPa
METAREIDW 110630Z 33004KT 300V020 5000 SCT005 BKN008 14/14 Q1016 NOSIG
過去の天気等 Google飛行場航空写真 Wunderground天気予報

過去48時間のMETAR

飛行場予報(TAF)
発表時間: 8/11 06:00 GMT (8/11 05:00 UTC)
予報対象時間: 11日7時 GMT ~ 12日7時 GMT
風向・風速西 3m/s
視程10km以上
全天の4割程度の雲 雲底高度 240m
全天の8割程度の雲 雲底高度 370m
11日7時 GMT ~ 11日10時 GMT に一時的に
視程4000m
天気現象もや
全天の8割程度の雲 雲底高度 180m
11日7時 GMT ~ 11日9時 GMT に徐々に
風向・風速不定 2m/s
11日11時 GMT ~ 11日13時 GMT に徐々に
全天の4割程度の雲 雲底高度 370m
全天の8割程度の雲 雲底高度 760m
11日14時 GMT ~ 11日16時 GMT に徐々に
風向・風速東北東 4m/s
11日19時 GMT ~ 11日21時 GMT に徐々に
風向・風速不定 2m/s
11日22時 GMT ~ 12日7時 GMT に一時的に
視程4000m
天気現象もや
全天の8割程度の雲 雲底高度 240m
11日23時 GMT ~ 12日7時 GMT に 確率 30% で一時的に
視程400m
天気現象
全天の8割程度の雲 雲底高度 30m
TAF EIDW 110500Z 1106/1206 28005KT 9999 SCT008 BKN012
TEMPO 1106/1109 4000 BR BKN006
BECMG 1106/1108 VRB03KT
BECMG 1110/1112 SCT012 BKN025
BECMG 1113/1115 07007KT
BECMG 1118/1120 VRB03KT
TEMPO 1121/1206 4000 BR BKN008
PROB30 TEMPO 1122/1206 0400 FG BKN001